createdAt,value
2019-02-10T00:01:00.029Z,41.79
2019-02-10T00:03:30.561Z,41.54
2019-02-10T00:06:01.673Z,42.10
2019-02-10T00:08:33.255Z,41.37
2019-02-10T00:11:03.852Z,41.32
2019-02-10T00:13:37.642Z,41.30
2019-02-10T00:16:17.493Z,42.23
2019-02-10T00:18:48.565Z,41.73
2019-02-10T00:21:19.663Z,41.92
2019-02-10T00:23:51.114Z,42.10
2019-02-10T00:26:22.620Z,42.21
2019-02-10T00:28:54.585Z,41.63
2019-02-10T00:31:25.216Z,41.48
2019-02-10T00:33:55.834Z,41.59
2019-02-10T00:36:32.880Z,42.43
2019-02-10T00:38:59.657Z,42.43
2019-02-10T00:41:30.250Z,42.44
2019-02-10T00:44:04.385Z,42.15
2019-02-10T00:46:34.972Z,41.57
2019-02-10T00:49:06.807Z,42.35
2019-02-10T00:51:37.790Z,42.62
2019-02-10T00:54:09.161Z,42.22
2019-02-10T00:56:45.445Z,42.95
2019-02-10T00:59:16.653Z,44.23
2019-02-10T01:01:50.026Z,44.07
2019-02-10T01:04:21.130Z,43.74
2019-02-10T01:06:52.157Z,44.61
2019-02-10T01:09:24.022Z,45.82
2019-02-10T01:11:56.005Z,44.47
2019-02-10T01:14:28.896Z,44.96
2019-02-10T01:17:00.222Z,45.00
2019-02-10T01:19:31.296Z,44.75
2019-02-10T01:22:02.122Z,45.17
2019-02-10T01:24:32.373Z,44.36
2019-02-10T01:27:02.672Z,44.44
2019-02-10T01:29:33.382Z,44.61
2019-02-10T01:32:04.415Z,44.27
2019-02-10T01:34:36.850Z,46.69
2019-02-10T01:37:09.786Z,48.30
2019-02-10T01:39:42.381Z,47.28
2019-02-10T01:42:14.781Z,46.38
2019-02-10T01:44:46.825Z,47.83
2019-02-10T01:47:17.387Z,48.71
2019-02-10T01:49:51.103Z,49.39
2019-02-10T01:52:23.541Z,48.69
2019-02-10T01:54:54.760Z,49.33
2019-02-10T01:57:25.426Z,48.99
2019-02-10T01:59:57.796Z,49.29
2019-02-10T02:02:28.590Z,48.52
2019-02-10T02:04:59.423Z,48.28
2019-02-10T02:07:30.943Z,49.24
2019-02-10T02:10:01.470Z,49.54
2019-02-10T02:12:33.468Z,48.60
2019-02-10T02:15:04.228Z,48.11
2019-02-10T02:17:36.228Z,48.83
2019-02-10T02:20:08.029Z,48.41
2019-02-10T02:22:38.309Z,49.97
2019-02-10T02:25:13.230Z,48.76
2019-02-10T02:27:44.790Z,48.89
2019-02-10T02:30:21.647Z,48.49
2019-02-10T02:32:52.757Z,48.18
2019-02-10T02:35:24.694Z,48.36
2019-02-10T02:37:57.439Z,48.63
2019-02-10T02:40:27.746Z,48.56
2019-02-10T02:43:00.170Z,49.49
2019-02-10T02:45:32.833Z,49.84
2019-02-10T02:48:04.024Z,49.50
2019-02-10T02:50:36.500Z,49.95
2019-02-10T02:53:07.442Z,52.64
2019-02-10T02:55:38.013Z,53.49
2019-02-10T02:58:08.645Z,54.08
2019-02-10T03:00:39.710Z,55.21
2019-02-10T03:03:11.985Z,54.68
2019-02-10T03:05:44.270Z,56.17
2019-02-10T03:08:15.844Z,56.80
2019-02-10T03:10:46.111Z,55.85
2019-02-10T03:13:16.937Z,55.65
2019-02-10T03:15:47.621Z,57.13
2019-02-10T03:18:18.580Z,56.94
2019-02-10T03:20:50.901Z,55.76
2019-02-10T03:23:22.313Z,56.18
2019-02-10T03:25:52.890Z,56.99
2019-02-10T03:28:26.818Z,56.51
2019-02-10T03:30:58.892Z,55.55
2019-02-10T03:33:30.230Z,56.54
2019-02-10T03:36:02.605Z,57.08
2019-02-10T03:38:34.061Z,57.42
2019-02-10T03:41:04.812Z,57.73
2019-02-10T03:43:38.110Z,58.00
2019-02-10T03:46:10.052Z,56.48
2019-02-10T03:48:41.999Z,57.04
2019-02-10T03:51:14.389Z,58.31
2019-02-10T03:53:45.700Z,57.72
2019-02-10T03:56:17.018Z,57.22
2019-02-10T03:58:49.467Z,56.49
2019-02-10T04:01:21.630Z,57.80
2019-02-10T04:03:54.400Z,56.96
2019-02-10T04:06:27.305Z,56.56
2019-02-10T04:08:58.373Z,55.98
2019-02-10T04:11:31.452Z,56.00
2019-02-10T04:14:03.062Z,55.15
2019-02-10T04:16:33.954Z,56.34
2019-02-10T04:19:04.521Z,57.02
2019-02-10T04:21:34.704Z,56.28
2019-02-10T04:24:06.255Z,55.49
2019-02-10T04:26:36.430Z,55.23
2019-02-10T04:29:09.433Z,56.23
2019-02-10T04:31:41.129Z,56.36
2019-02-10T04:34:15.212Z,58.12
2019-02-10T04:36:45.873Z,57.03
2019-02-10T04:39:18.865Z,55.75
2019-02-10T04:41:51.800Z,55.59
2019-02-10T04:44:23.255Z,55.16
2019-02-10T04:46:53.822Z,55.93
2019-02-10T04:49:24.723Z,56.04
2019-02-10T04:51:56.017Z,57.22
2019-02-10T04:54:27.878Z,56.92
2019-02-10T04:56:58.364Z,55.92
2019-02-10T04:59:32.079Z,56.50
2019-02-10T05:02:04.335Z,57.30
2019-02-10T05:04:36.813Z,57.08
2019-02-10T05:07:07.016Z,58.00
2019-02-10T05:09:38.937Z,56.51
2019-02-10T05:12:09.158Z,56.96
2019-02-10T05:14:39.759Z,58.50
2019-02-10T05:17:10.737Z,58.14
2019-02-10T05:19:47.058Z,57.43
2019-02-10T05:22:19.822Z,57.70
2019-02-10T05:24:50.015Z,57.02
2019-02-10T05:27:21.178Z,57.11
2019-02-10T05:29:53.059Z,55.81
2019-02-10T05:32:24.160Z,56.61
2019-02-10T05:34:55.511Z,57.18
2019-02-10T05:37:30.545Z,57.25
2019-02-10T05:40:03.734Z,57.65
2019-02-10T05:42:35.149Z,57.81
2019-02-10T05:45:07.014Z,57.09
2019-02-10T05:47:38.433Z,56.78
2019-02-10T05:50:09.678Z,57.26
2019-02-10T05:52:39.900Z,58.02
2019-02-10T05:55:10.722Z,57.31
2019-02-10T05:57:40.943Z,56.13
2019-02-10T06:00:12.136Z,55.51
2019-02-10T06:02:42.370Z,56.52
2019-02-10T06:05:22.934Z,55.78
2019-02-10T06:07:55.994Z,55.57
2019-02-10T06:10:27.044Z,55.09
2019-02-10T06:12:58.563Z,54.83
2019-02-10T06:15:31.550Z,54.29
2019-02-10T06:18:05.568Z,53.95
2019-02-10T06:20:38.635Z,54.75
2019-02-10T06:23:09.618Z,54.69
2019-02-10T06:25:41.556Z,54.45
2019-02-10T06:28:14.011Z,55.58
2019-02-10T06:30:44.214Z,54.74
2019-02-10T06:33:14.825Z,54.17
2019-02-10T06:35:47.323Z,54.17
2019-02-10T06:38:22.507Z,54.62
2019-02-10T06:40:52.146Z,53.97
2019-02-10T06:43:23.622Z,55.97
2019-02-10T06:45:54.225Z,55.61
2019-02-10T06:48:26.279Z,54.45
2019-02-10T06:50:58.754Z,53.88
2019-02-10T06:53:30.610Z,54.84
2019-02-10T06:56:03.039Z,54.13
2019-02-10T06:58:33.719Z,53.94
2019-02-10T07:01:15.702Z,53.36
2019-02-10T07:04:01.285Z,53.78
2019-02-10T07:06:32.778Z,52.66
2019-02-10T07:09:04.271Z,53.11
2019-02-10T07:11:34.595Z,55.64
2019-02-10T07:14:06.934Z,54.03
2019-02-10T07:17:37.351Z,53.58
2019-02-10T07:20:44.021Z,53.40
2019-02-10T07:24:07.291Z,54.11
2019-02-10T07:27:08.159Z,55.07
2019-02-10T07:30:35.606Z,54.89
2019-02-10T07:33:15.073Z,55.51
2019-02-10T07:36:30.425Z,53.86
2019-02-10T07:39:27.287Z,53.08
2019-02-10T07:42:38.615Z,53.34
2019-02-10T07:45:43.349Z,52.38
2019-02-10T07:48:42.802Z,52.02
2019-02-10T07:51:44.459Z,50.98
2019-02-10T07:54:31.171Z,51.08
2019-02-10T07:57:46.246Z,50.31
2019-02-10T08:00:27.610Z,50.61
2019-02-10T08:03:19.147Z,49.60
2019-02-10T08:06:48.720Z,50.14
2019-02-10T08:09:48.771Z,49.67
2019-02-10T08:12:59.352Z,51.48
2019-02-10T08:16:03.817Z,52.41
2019-02-10T08:19:11.621Z,51.08
2019-02-10T08:22:17.973Z,50.87
2019-02-10T08:25:43.389Z,50.24
2019-02-10T08:28:58.354Z,50.65
2019-02-10T08:32:05.355Z,50.73
2019-02-10T08:34:51.857Z,51.06
2019-02-10T08:38:06.858Z,51.35
2019-02-10T08:41:28.858Z,50.94
2019-02-10T08:44:27.000Z,51.08
2019-02-10T08:47:08.893Z,50.59
2019-02-10T08:50:20.444Z,50.97
2019-02-10T08:53:02.631Z,49.76
2019-02-10T08:55:33.341Z,49.60
2019-02-10T08:58:03.939Z,49.91
2019-02-10T09:00:35.529Z,50.87
2019-02-10T09:03:07.966Z,51.01
2019-02-10T09:05:39.867Z,52.02
2019-02-10T09:08:11.036Z,53.19
2019-02-10T09:10:46.463Z,54.26
2019-02-10T09:13:18.041Z,54.79
2019-02-10T09:15:50.656Z,54.99
2019-02-10T09:18:22.391Z,55.46
2019-02-10T09:20:56.280Z,54.30
2019-02-10T09:23:29.711Z,54.49
2019-02-10T09:26:01.222Z,55.37
2019-02-10T09:28:32.144Z,55.75
2019-02-10T09:31:03.563Z,56.57
2019-02-10T09:33:36.683Z,56.53
2019-02-10T09:36:09.562Z,56.69
2019-02-10T09:38:40.473Z,55.74
2019-02-10T09:41:11.873Z,54.58
2019-02-10T09:43:42.564Z,54.90
2019-02-10T09:46:14.968Z,54.85
2019-02-10T09:48:46.646Z,53.34
2019-02-10T09:51:19.409Z,53.25
2019-02-10T09:53:51.042Z,55.01
2019-02-10T09:56:21.656Z,55.30
2019-02-10T09:58:57.476Z,54.69
2019-02-10T10:01:31.938Z,54.88
2019-02-10T10:04:05.023Z,55.06
2019-02-10T10:06:38.912Z,55.45
2019-02-10T10:09:10.261Z,54.08
2019-02-10T10:11:41.711Z,54.04
2019-02-10T10:14:12.778Z,54.14
2019-02-10T10:16:43.884Z,53.49
2019-02-10T10:19:14.908Z,53.50
2019-02-10T10:21:47.078Z,54.29
2019-02-10T10:24:19.198Z,54.35
2019-02-10T10:26:54.639Z,54.87
2019-02-10T10:29:25.788Z,54.02
2019-02-10T10:31:58.313Z,54.86
2019-02-10T10:34:29.737Z,55.00
2019-02-10T10:36:59.936Z,57.49
2019-02-10T10:39:30.230Z,54.89
2019-02-10T10:42:01.559Z,54.37
2019-02-10T10:44:32.649Z,54.25
2019-02-10T10:47:03.244Z,54.29
2019-02-10T10:49:33.796Z,55.26
2019-02-10T10:52:04.655Z,55.34
2019-02-10T10:54:42.662Z,55.42
2019-02-10T10:57:08.720Z,54.77
2019-02-10T10:59:42.324Z,53.96
2019-02-10T11:02:13.264Z,54.27
2019-02-10T11:04:44.579Z,53.23
2019-02-10T11:07:15.472Z,54.36
2019-02-10T11:09:46.451Z,53.81
2019-02-10T11:12:19.462Z,55.22
2019-02-10T11:14:51.854Z,53.95
2019-02-10T11:17:25.340Z,56.30
2019-02-10T11:19:58.360Z,59.90
2019-02-10T11:22:28.937Z,58.02
2019-02-10T11:25:04.826Z,59.61
2019-02-10T11:27:37.005Z,59.73
2019-02-10T11:30:08.866Z,62.47
2019-02-10T11:32:39.430Z,59.05
2019-02-10T11:35:12.685Z,57.67
2019-02-10T11:37:43.633Z,58.24
2019-02-10T11:40:16.579Z,58.01
2019-02-10T11:42:49.391Z,57.95
2019-02-10T11:45:21.255Z,57.61
2019-02-10T11:47:53.388Z,56.23
2019-02-10T11:50:27.520Z,56.85
2019-02-10T11:53:01.222Z,57.94
2019-02-10T11:55:36.689Z,59.24
2019-02-10T11:58:07.301Z,59.49
2019-02-10T12:00:37.989Z,58.93
2019-02-10T12:03:08.584Z,58.67
2019-02-10T12:05:39.404Z,59.71
2019-02-10T12:08:10.034Z,58.31
2019-02-10T12:10:41.691Z,59.94
2019-02-10T12:13:13.860Z,59.73
2019-02-10T12:15:46.844Z,59.97
2019-02-10T12:18:17.055Z,60.07
2019-02-10T12:20:47.836Z,58.83
2019-02-10T12:23:18.643Z,58.13
2019-02-10T12:25:51.856Z,56.86
2019-02-10T12:28:23.611Z,55.79
2019-02-10T12:30:54.161Z,56.53
2019-02-10T12:33:25.576Z,57.30
2019-02-10T12:35:58.579Z,56.60
2019-02-10T12:38:33.791Z,55.45
2019-02-10T12:41:08.755Z,55.90
2019-02-10T12:43:41.444Z,55.07
2019-02-10T12:46:13.467Z,55.68
2019-02-10T12:48:46.149Z,55.81
2019-02-10T12:51:18.968Z,55.00
2019-02-10T12:53:54.050Z,55.74
2019-02-10T12:56:26.201Z,55.65
2019-02-10T12:58:59.604Z,57.87
2019-02-10T13:01:30.401Z,59.89
2019-02-10T13:04:00.688Z,58.59
2019-02-10T13:06:31.449Z,58.20
2019-02-10T13:09:03.128Z,57.41
2019-02-10T13:11:35.698Z,56.72
2019-02-10T13:14:07.465Z,57.86
2019-02-10T13:16:38.566Z,57.26
2019-02-10T13:19:10.577Z,59.38
2019-02-10T13:21:41.526Z,57.72
2019-02-10T13:24:13.387Z,55.79
2019-02-10T13:26:46.570Z,55.25
2019-02-10T13:29:19.215Z,53.75
2019-02-10T13:31:50.678Z,55.19
2019-02-10T13:34:22.339Z,55.31
2019-02-10T13:36:57.000Z,54.92
2019-02-10T13:39:29.971Z,55.16
2019-02-10T13:42:03.757Z,54.46
2019-02-10T13:44:35.027Z,55.17
2019-02-10T13:47:06.070Z,56.06
2019-02-10T13:49:37.553Z,55.12
2019-02-10T13:52:10.098Z,55.51
2019-02-10T13:54:45.368Z,55.47
2019-02-10T13:57:18.306Z,56.16
2019-02-10T13:59:54.878Z,55.02
2019-02-10T14:02:26.756Z,53.93
2019-02-10T14:04:59.360Z,52.37
2019-02-10T14:07:30.544Z,52.27
2019-02-10T14:10:01.933Z,51.84
2019-02-10T14:12:33.981Z,52.02
2019-02-10T14:15:07.227Z,53.49
2019-02-10T14:17:38.347Z,54.15
2019-02-10T14:20:12.559Z,53.32
2019-02-10T14:22:43.972Z,52.86
2019-02-10T14:25:15.042Z,55.14
2019-02-10T14:27:46.593Z,54.11
2019-02-10T14:30:18.432Z,55.61
2019-02-10T14:32:49.690Z,55.44
2019-02-10T14:35:22.496Z,58.59
2019-02-10T14:37:55.077Z,60.67
2019-02-10T14:40:33.553Z,59.54
2019-02-10T14:43:05.029Z,59.39
2019-02-10T14:45:38.161Z,61.42
2019-02-10T14:48:08.856Z,63.39
2019-02-10T14:50:41.871Z,62.13
2019-02-10T14:53:13.212Z,60.57
2019-02-10T14:55:45.051Z,59.21
2019-02-10T14:58:29.006Z,59.28
2019-02-10T15:00:59.643Z,58.16
2019-02-10T15:03:32.480Z,56.53
2019-02-10T15:06:03.380Z,57.27
2019-02-10T15:08:34.536Z,55.21
2019-02-10T15:11:06.491Z,56.24
2019-02-10T15:13:38.489Z,55.34
2019-02-10T15:16:10.326Z,54.57
2019-02-10T15:18:42.129Z,55.20
2019-02-10T15:21:15.663Z,54.83
2019-02-10T15:23:47.113Z,57.75
2019-02-10T15:26:20.392Z,56.57
2019-02-10T15:28:53.546Z,55.28
2019-02-10T15:31:25.754Z,54.60
2019-02-10T15:33:56.652Z,57.23
2019-02-10T15:36:27.775Z,57.34
2019-02-10T15:38:58.584Z,57.17
2019-02-10T15:41:28.801Z,57.70
2019-02-10T15:43:59.804Z,58.85
2019-02-10T15:46:31.594Z,57.03
2019-02-10T15:49:01.993Z,55.10
2019-02-10T15:51:37.224Z,54.10
2019-02-10T15:54:05.812Z,54.61
2019-02-10T15:56:36.609Z,55.29
2019-02-10T15:59:09.131Z,56.16
2019-02-10T16:01:40.635Z,55.60
2019-02-10T16:04:12.972Z,55.58
2019-02-10T16:06:44.819Z,57.15
2019-02-10T16:09:15.138Z,55.93
2019-02-10T16:11:46.505Z,55.52
2019-02-10T16:14:18.864Z,55.99
2019-02-10T16:16:51.443Z,56.74
2019-02-10T16:19:22.869Z,55.97
2019-02-10T16:21:54.236Z,55.27
2019-02-10T16:24:24.753Z,55.02
2019-02-10T16:26:55.398Z,56.16
2019-02-10T16:29:26.599Z,59.35
2019-02-10T16:31:56.815Z,58.05
2019-02-10T16:34:27.910Z,57.37
2019-02-10T16:36:59.739Z,57.66
2019-02-10T16:39:30.578Z,56.01
2019-02-10T16:42:01.142Z,56.69
2019-02-10T16:44:32.134Z,56.55
2019-02-10T16:47:03.163Z,56.26
2019-02-10T16:49:34.201Z,54.90
2019-02-10T16:52:04.976Z,53.82
2019-02-10T16:54:36.105Z,53.32
2019-02-10T16:57:06.830Z,52.73
2019-02-10T16:59:38.986Z,52.03
2019-02-10T17:02:10.665Z,51.85
2019-02-10T17:04:42.192Z,51.80
2019-02-10T17:07:12.973Z,53.78
2019-02-10T17:09:45.180Z,53.69
2019-02-10T17:12:17.335Z,53.13
2019-02-10T17:14:49.334Z,52.16
2019-02-10T17:17:22.341Z,52.85
2019-02-10T17:19:53.988Z,52.49
2019-02-10T17:22:26.024Z,52.18
2019-02-10T17:24:57.768Z,54.50
2019-02-10T17:27:29.061Z,54.43
2019-02-10T17:30:01.425Z,53.79
2019-02-10T17:32:33.822Z,53.24
2019-02-10T17:35:04.139Z,51.66
2019-02-10T17:37:34.343Z,52.08
2019-02-10T17:40:06.069Z,53.00
2019-02-10T17:42:37.328Z,53.15
2019-02-10T17:45:10.337Z,53.62
2019-02-10T17:47:40.557Z,54.86
2019-02-10T17:50:15.428Z,54.36
2019-02-10T17:52:48.133Z,53.89
2019-02-10T17:55:19.460Z,52.66
2019-02-10T17:57:52.112Z,53.34
2019-02-10T18:00:26.620Z,57.37
2019-02-10T18:02:57.669Z,56.84
2019-02-10T18:05:28.207Z,56.34
2019-02-10T18:07:58.851Z,55.93
2019-02-10T18:10:30.588Z,55.71
2019-02-10T18:13:02.464Z,57.63
2019-02-10T18:16:01.242Z,57.44
2019-02-10T18:18:51.237Z,57.71
2019-02-10T18:21:39.594Z,58.04
2019-02-10T18:24:39.798Z,55.85
2019-02-10T18:27:34.624Z,55.22
2019-02-10T18:30:34.302Z,54.90
2019-02-10T18:33:34.942Z,56.29
2019-02-10T18:36:16.918Z,53.55
2019-02-10T18:38:56.171Z,52.89
2019-02-10T18:42:05.738Z,53.96
2019-02-10T18:45:14.722Z,53.48
2019-02-10T18:48:02.055Z,54.97
2019-02-10T18:50:59.954Z,54.99
2019-02-10T18:53:51.382Z,55.64
2019-02-10T18:56:31.300Z,55.78
2019-02-10T18:59:24.611Z,55.08
2019-02-10T19:02:16.455Z,55.08
2019-02-10T19:04:56.825Z,57.61
2019-02-10T19:07:50.163Z,58.66
2019-02-10T19:10:40.648Z,57.28
2019-02-10T19:13:31.677Z,56.52
2019-02-10T19:16:26.791Z,55.88
2019-02-10T19:19:06.856Z,57.47
2019-02-10T19:22:00.166Z,58.11
2019-02-10T19:24:38.887Z,56.43
2019-02-10T19:27:29.820Z,56.18
2019-02-10T19:30:17.862Z,54.89
2019-02-10T19:33:17.592Z,53.38
2019-02-10T19:36:07.856Z,54.30
2019-02-10T19:39:06.260Z,56.33
2019-02-10T19:41:55.604Z,55.87
2019-02-10T19:44:44.303Z,55.73
2019-02-10T19:47:31.812Z,56.29
2019-02-10T19:50:25.186Z,55.11
2019-02-10T19:53:14.257Z,54.88
2019-02-10T19:56:16.707Z,56.19
2019-02-10T19:58:58.479Z,55.32
2019-02-10T20:01:47.362Z,57.27
2019-02-10T20:04:33.471Z,56.01
2019-02-10T20:07:14.426Z,57.10
2019-02-10T20:09:53.847Z,58.30
2019-02-10T20:12:53.114Z,57.46
2019-02-10T20:15:42.826Z,58.72
2019-02-10T20:18:31.595Z,58.15
2019-02-10T20:21:37.799Z,58.67
2019-02-10T20:24:30.120Z,58.23
2019-02-10T20:27:18.426Z,58.43
2019-02-10T20:30:12.273Z,58.96
2019-02-10T20:33:02.470Z,60.75
2019-02-10T20:35:50.862Z,59.55
2019-02-10T20:39:00.183Z,59.51
2019-02-10T20:41:56.987Z,58.89
2019-02-10T20:44:40.471Z,59.70
2019-02-10T20:47:36.845Z,57.42
2019-02-10T20:50:26.276Z,57.14
2019-02-10T20:53:17.116Z,57.47
2019-02-10T20:56:02.710Z,57.71
2019-02-10T20:58:49.286Z,57.25
2019-02-10T21:01:53.542Z,56.23
2019-02-10T21:04:43.419Z,57.31
2019-02-10T21:07:34.232Z,57.02
2019-02-10T21:10:17.459Z,56.50
2019-02-10T21:13:03.865Z,57.21
2019-02-10T21:15:46.186Z,56.94
2019-02-10T21:18:33.615Z,57.69
2019-02-10T21:21:31.487Z,57.46
2019-02-10T21:24:33.349Z,58.00
2019-02-10T21:27:13.542Z,57.92
2019-02-10T21:29:58.158Z,57.92
2019-02-10T21:33:06.248Z,58.09
2019-02-10T21:35:53.690Z,59.16
2019-02-10T21:38:46.425Z,58.05
2019-02-10T21:41:34.589Z,58.33
2019-02-10T21:44:36.059Z,58.32
2019-02-10T21:47:17.993Z,58.05
2019-02-10T21:49:49.165Z,57.99
2019-02-10T21:52:20.928Z,57.76
2019-02-10T21:54:54.628Z,57.84
2019-02-10T21:57:26.694Z,57.79
2019-02-10T21:59:58.399Z,58.70
2019-02-10T22:02:29.956Z,58.62
2019-02-10T22:05:01.527Z,58.52
2019-02-10T22:07:33.161Z,58.97
2019-02-10T22:10:05.825Z,58.10
2019-02-10T22:12:39.393Z,58.21
2019-02-10T22:15:10.956Z,59.52
2019-02-10T22:17:41.291Z,59.58
2019-02-10T22:20:13.783Z,59.53
2019-02-10T22:22:47.199Z,59.40
2019-02-10T22:25:20.231Z,59.89
2019-02-10T22:27:52.956Z,60.48
2019-02-10T22:30:24.494Z,59.78
2019-02-10T22:32:54.783Z,59.63
2019-02-10T22:35:25.446Z,60.06
2019-02-10T22:37:56.896Z,59.02
2019-02-10T22:40:27.926Z,59.06
2019-02-10T22:43:00.395Z,59.92
2019-02-10T22:45:30.613Z,59.56
2019-02-10T22:48:01.357Z,60.30
2019-02-10T22:50:32.264Z,59.28
2019-02-10T22:53:05.263Z,60.52
2019-02-10T22:55:35.408Z,60.47
2019-02-10T22:58:07.473Z,59.97
2019-02-10T23:00:50.563Z,59.16
2019-02-10T23:03:21.772Z,59.67
2019-02-10T23:05:54.317Z,60.22
2019-02-10T23:08:25.366Z,59.23
2019-02-10T23:10:56.103Z,58.86
2019-02-10T23:13:28.133Z,59.32
2019-02-10T23:15:59.270Z,58.64
2019-02-10T23:18:30.830Z,58.51
2019-02-10T23:21:03.840Z,58.24
2019-02-10T23:23:39.472Z,58.81
2019-02-10T23:26:11.269Z,58.57
2019-02-10T23:28:44.250Z,58.20
2019-02-10T23:31:16.007Z,57.22
2019-02-10T23:33:47.463Z,57.75
2019-02-10T23:36:18.398Z,56.80
2019-02-10T23:38:50.066Z,57.58
2019-02-10T23:41:21.989Z,56.59
2019-02-10T23:43:54.022Z,55.98
2019-02-10T23:46:26.254Z,56.08
2019-02-10T23:48:56.588Z,56.33
2019-02-10T23:51:27.610Z,55.60
2019-02-10T23:53:58.862Z,55.56
2019-02-10T23:56:30.540Z,56.11
2019-02-10T23:59:05.052Z,55.48
